DIRECCIÓN GENERAL DE AERONÁUTICA CIVIL
DIRECCIÓN METEOROLÓGICA DE CHILE
INFORMACIÓN METAR Y TAF

FIR PUERTO MONTT

Estación: SCQP
METAR SCQP 291300Z VRB02KT CAVOK 07/06 Q1017=

TAF SCQP 291041Z 2912/3012 VRB02KT 2000 BR SCT030 TX14/2918Z TN08/ 3009Z BECMG 2914/2916 03010KT 9999 NSW SCT040 BECMG 2919/2921 BKN025 BKN060 BECMG 3000/3002 03015KT 5000 SHRA BKN015 BKN025 BECMG 3010/ 3012 35010KT=

Estación: SCVD
METAR SCVD 291300Z 00000KT CAVOK 07/07 Q1017=

TAF SCVD 291041Z 2912/2924 03010KT 9999 SCT030 SCT040 TX14/2918Z TN10 /2924Z TEMPO 2909/2913 7000 -SHRA BKN020 BKN030 BECMG 2922/2924 BKN020 BKN030=

Estación: SCJO
METAR SCJO 291300Z VRB03KT 9999 FEW020 BKN030 10/09 Q1017=

TAF SCJO 291042Z 2912/2924 02012KT 9999 BKN040 TX13/2918Z TN10/2924Z BECMG 2920/2922 BKN020 BKN030=

Estación: SCTE
METAR SCTE 291300Z 02012KT 9999 SCT040 SCT100 09/07 Q1016 NOSIG=

TAF SCTE 291042Z 2912/3012 02012KT 9999 BKN040 TX12/2918Z TN08/3009Z BECMG 2920/2922 BKN020 BKN030 BECMG 3002/3004 4000 RA BKN015 BKN025=

Estación: SCPQ
METAR SCPQ 291300Z 36008KT 6000 SHRA BKN015 07/07 Q1014=

TAF SCPQ 291044Z 2912/2924 36013KT 8000 -RA BKN004 TX11/2918Z TN10/ 2924Z BECMG 2914/2916 6000 RA BKN005 BKN015 BKN020=

Estación: SCON
METAR SCON 291300Z 02011KT 280V090 9999 BKN020 09/08 Q1014=

TAF SCON NIL=

Estación: SCTN
METAR SCTN 291300Z 36014KT 9999 -SHRA BKN030 OVC050 11/07 Q1015=

TAF SCTN 291043Z 2912/2924 03011KT 9999 BKN040 TX12/2918Z TN10/2924Z BECMG 2920/2922 5000 RA BKN015 BKN020=

Estación: SCFT
METAR SCFT 291300Z VRB01KT 9999 4000W FU FEW006 SCT043 02/02 Q1016=

NIL=

Estación: SCAP
METAR SCAP 291300Z VRB03KT 9999 FEW001 BKN030 03/03 Q1021=

NIL=

Estación: SCMK
METAR SCMK 291300Z 01013KT 9999 BKN013 10/08 Q1012=

TAF SCMK 291045Z 2912/2924 36016KT 5000 -RA BKN004 BKN015 TX11/2918Z TN10/2924Z=

Estación: SCAS
METAR SCAS 291300Z 00000KT 9999 SCT003 BKN043 06/05 Q1012=

NIL=

Estación: SCCY
METAR SCCY 291300Z 02003KT 9999 BKN036 03/02 Q1012=

TAF SCCY 291046Z 2912/2924 25010KT 9999 BKN040 TX09/2918Z TN06/2924Z BECMG 2920/2922 7000 -SHRA BKN020 BKN030=

Estación: SCBA
METAR SCBA 291300Z 12003KT 9999 SCT030 02/M00 Q1011=

TAF SCBA 291046Z 2912/3012 VRB02KT CAVOK TX08/2918Z TNM01/3008Z BECMG 2914/2916 33014KT BECMG 3000/3002 7000 -SHRA BKN020 BKN030 BECMG 3006/3008 VRB02KT=

Estación: SCCC
METAR SCCC 291300Z 17004KT 9999 BKN030 03/01 Q1011=

NIL=

Estación: SCHR
METAR SCHR 291300Z 15002KT 9999 OVC035 02/00 Q1007=

TAF SCHR 291028Z 2912/3000 36005KT 9999 SCT040 TN02/2912Z TX08/2918Z TEMPO 2912/2916 VRB03KT PROB40 TEMPO 2914/2918 9000 -SHRA BKN025 BECMG 2916/2918 FEW035 SCT090=


Volver